createdAt,value
2023-02-02T00:02:01.044Z,101960.09
2023-02-02T00:04:33.435Z,101960.09
2023-02-02T00:07:01.359Z,101966.91
2023-02-02T00:09:30.143Z,101967.34
2023-02-02T00:11:57.251Z,101969.28
2023-02-02T00:14:24.722Z,101968.97
2023-02-02T00:16:53.298Z,101958.81
2023-02-02T00:19:22.446Z,101964.34
2023-02-02T00:21:49.123Z,101964.56
2023-02-02T00:24:20.150Z,101965.69
2023-02-02T00:26:49.644Z,101970.91
2023-02-02T00:29:23.864Z,101955.69
2023-02-02T00:31:51.094Z,101978.34
2023-02-02T00:34:18.244Z,101972.94
2023-02-02T00:36:45.231Z,101981.75
2023-02-02T00:39:15.831Z,101983.25
2023-02-02T00:41:42.229Z,101976.50
2023-02-02T00:44:27.059Z,101981.94
2023-02-02T00:46:53.414Z,101990.25
2023-02-02T00:49:19.833Z,101973.75
2023-02-02T00:51:46.214Z,101989.66
2023-02-02T00:54:14.243Z,101988.38
2023-02-02T00:56:41.515Z,101989.25
2023-02-02T00:59:08.302Z,101982.13
2023-02-02T01:01:35.013Z,101971.09
2023-02-02T01:04:01.581Z,101987.47
2023-02-02T01:06:28.057Z,101983.88
2023-02-02T01:08:54.561Z,101992.56
2023-02-02T01:11:21.221Z,101994.50
2023-02-02T01:13:47.847Z,101984.91
2023-02-02T01:16:14.361Z,101993.66
2023-02-02T01:18:40.731Z,102002.56
2023-02-02T01:21:10.512Z,101992.81
2023-02-02T01:23:38.290Z,101995.25
2023-02-02T01:26:08.955Z,101989.84
2023-02-02T01:28:36.021Z,101995.69
2023-02-02T01:31:12.438Z,101989.22
2023-02-02T01:33:39.651Z,101983.69
2023-02-02T01:36:09.946Z,101997.09
2023-02-02T01:38:36.923Z,102002.94
2023-02-02T01:41:04.630Z,102003.91
2023-02-02T01:43:43.895Z,102007.31
2023-02-02T01:46:18.457Z,102008.59
2023-02-02T01:48:51.137Z,102000.09
2023-02-02T01:51:20.931Z,102007.31
2023-02-02T01:53:49.473Z,102008.81
2023-02-02T01:56:24.593Z,102016.22
2023-02-02T01:58:51.232Z,102008.06
2023-02-02T02:01:17.790Z,102006.03
2023-02-02T02:03:44.263Z,102010.50
2023-02-02T02:06:15.494Z,102016.56
2023-02-02T02:09:00.526Z,102022.00
2023-02-02T02:11:27.003Z,102014.34
2023-02-02T02:14:19.363Z,102017.31
2023-02-02T02:16:51.278Z,102012.53
2023-02-02T02:20:16.060Z,102013.72
2023-02-02T02:23:35.030Z,102014.13
2023-02-02T02:26:50.802Z,102016.13
2023-02-02T02:29:41.785Z,102005.81
2023-02-02T02:32:18.105Z,102004.97
2023-02-02T02:35:12.272Z,102008.81
2023-02-02T02:37:41.574Z,102002.41
2023-02-02T02:40:17.418Z,102010.47
2023-02-02T02:42:49.579Z,101994.00
2023-02-02T02:45:17.802Z,102015.28
2023-02-02T02:47:44.789Z,102009.25
2023-02-02T02:50:12.009Z,102013.91
2023-02-02T02:52:39.975Z,102022.66
2023-02-02T02:55:07.993Z,102020.00
2023-02-02T02:57:49.321Z,102022.22
2023-02-02T03:00:31.648Z,102021.25
2023-02-02T03:03:19.754Z,102021.66
2023-02-02T03:05:58.531Z,102031.03
2023-02-02T03:08:33.737Z,102037.19
2023-02-02T03:11:02.421Z,102035.28
2023-02-02T03:13:29.463Z,102037.09
2023-02-02T03:15:56.509Z,102036.91
2023-02-02T03:18:27.258Z,102040.59
2023-02-02T03:20:53.633Z,102033.78
2023-02-02T03:23:20.193Z,102030.44
2023-02-02T03:25:46.660Z,102033.44
2023-02-02T03:28:13.202Z,102029.47
2023-02-02T03:30:42.011Z,102041.31
2023-02-02T03:33:10.001Z,102030.44
2023-02-02T03:35:36.423Z,102038.31
2023-02-02T03:38:03.752Z,102035.31
2023-02-02T03:40:30.170Z,102027.72
2023-02-02T03:42:57.094Z,102037.19
2023-02-02T03:45:26.792Z,102050.13
2023-02-02T03:47:53.275Z,102037.56
2023-02-02T03:50:19.805Z,102043.56
2023-02-02T03:52:46.308Z,102032.91
2023-02-02T03:55:12.732Z,102036.69
2023-02-02T03:57:39.107Z,102040.72
2023-02-02T04:00:06.219Z,102045.00
2023-02-02T04:02:32.598Z,102041.22
2023-02-02T04:04:59.008Z,102039.94
2023-02-02T04:07:25.406Z,102036.88
2023-02-02T04:09:51.754Z,102039.38
2023-02-02T04:12:18.114Z,102042.31
2023-02-02T04:14:44.542Z,102044.50
2023-02-02T04:17:11.538Z,102031.69
2023-02-02T04:19:38.349Z,102042.34
2023-02-02T04:22:04.827Z,102040.88
2023-02-02T04:24:31.245Z,102039.19
2023-02-02T04:26:57.626Z,102037.22
2023-02-02T04:29:25.134Z,102016.78
2023-02-02T04:31:51.703Z,102040.59
2023-02-02T04:34:18.223Z,102050.47
2023-02-02T04:36:44.748Z,102044.28
2023-02-02T04:39:11.988Z,102045.81
2023-02-02T04:41:38.368Z,102055.63
2023-02-02T04:44:06.740Z,102062.34
2023-02-02T04:46:33.170Z,102056.72
2023-02-02T04:48:59.538Z,102059.28
2023-02-02T04:51:25.924Z,102063.25
2023-02-02T04:53:52.279Z,102060.59
2023-02-02T04:56:18.939Z,102060.78
2023-02-02T04:58:46.175Z,102064.16
2023-02-02T05:01:18.940Z,102059.03
2023-02-02T05:03:45.916Z,102071.69
2023-02-02T05:06:15.538Z,102074.50
2023-02-02T05:08:43.312Z,102065.34
2023-02-02T05:11:11.260Z,102067.75
2023-02-02T05:13:37.735Z,102073.19
2023-02-02T05:16:04.423Z,102069.91
2023-02-02T05:18:31.560Z,102079.53
2023-02-02T05:21:02.878Z,102077.16
2023-02-02T05:23:30.353Z,102077.75
2023-02-02T05:25:57.157Z,102089.78
2023-02-02T05:28:24.052Z,102095.31
2023-02-02T05:30:51.141Z,102086.56
2023-02-02T05:33:20.659Z,102091.59
2023-02-02T05:35:48.272Z,102092.47
2023-02-02T05:38:15.755Z,102088.09
2023-02-02T05:40:42.197Z,102091.69
2023-02-02T05:43:08.593Z,102094.59
2023-02-02T05:45:34.993Z,102089.91
2023-02-02T05:48:01.379Z,102095.22
2023-02-02T05:50:27.772Z,102090.66
2023-02-02T05:52:54.306Z,102096.41
2023-02-02T05:55:20.648Z,102090.09
2023-02-02T05:57:47.033Z,102094.69
2023-02-02T06:00:14.020Z,102100.88
2023-02-02T06:02:40.434Z,102107.78
2023-02-02T06:05:07.701Z,102097.97
2023-02-02T06:07:34.102Z,102109.06
2023-02-02T06:10:00.506Z,102106.63
2023-02-02T06:12:26.895Z,102113.13
2023-02-02T06:14:53.250Z,102110.78
2023-02-02T06:17:19.623Z,102113.34
2023-02-02T06:19:46.002Z,102121.00
2023-02-02T06:22:12.451Z,102122.28
2023-02-02T06:24:38.837Z,102110.69
2023-02-02T06:27:05.508Z,102099.28
2023-02-02T06:29:31.849Z,102110.78
2023-02-02T06:31:58.475Z,102107.06
2023-02-02T06:34:24.929Z,102112.69
2023-02-02T06:36:51.306Z,102115.25
2023-02-02T06:39:17.725Z,102113.88
2023-02-02T06:41:46.539Z,102123.56
2023-02-02T06:44:15.257Z,102133.47
2023-02-02T06:46:42.520Z,102128.38
2023-02-02T06:49:11.879Z,102123.69
2023-02-02T06:51:38.327Z,102124.84
2023-02-02T06:54:04.855Z,102110.03
2023-02-02T06:56:31.240Z,102125.72
2023-02-02T06:58:57.671Z,102133.56
2023-02-02T07:01:24.152Z,102138.06
2023-02-02T07:03:51.253Z,102149.78
2023-02-02T07:06:23.910Z,102150.22
2023-02-02T07:09:01.815Z,102155.75
2023-02-02T07:11:31.554Z,102156.59
2023-02-02T07:13:58.966Z,102166.31
2023-02-02T07:16:25.447Z,102171.28
2023-02-02T07:18:51.896Z,102169.50
2023-02-02T07:21:23.980Z,102171.28
2023-02-02T07:23:51.193Z,102176.63
2023-02-02T07:26:18.811Z,102178.75
2023-02-02T07:28:46.100Z,102182.59
2023-02-02T07:31:18.165Z,102174.19
2023-02-02T07:33:45.775Z,102183.91
2023-02-02T07:51:40.410Z,102192.72
2023-02-02T07:54:09.466Z,102189.81
2023-02-02T07:56:37.891Z,102209.22
2023-02-02T07:59:04.323Z,102203.56
2023-02-02T08:01:30.770Z,102206.22
2023-02-02T08:04:00.489Z,102212.94
2023-02-02T08:06:29.797Z,102190.03
2023-02-02T08:08:56.390Z,102214.56
2023-02-02T08:11:24.940Z,102232.03
2023-02-02T08:13:54.440Z,102226.09
2023-02-02T08:16:21.884Z,102204.09
2023-02-02T08:18:49.150Z,102218.81
2023-02-02T08:21:16.711Z,102231.19
2023-02-02T08:23:43.478Z,102234.38
2023-02-02T08:26:22.245Z,102241.00
2023-02-02T08:28:53.424Z,102249.75
2023-02-02T08:31:43.125Z,102248.06
2023-02-02T08:34:10.164Z,102251.47
2023-02-02T08:36:37.022Z,102247.09
2023-02-02T08:39:08.680Z,102256.47
2023-02-02T08:41:36.818Z,102244.94
2023-02-02T08:44:11.840Z,102245.91
2023-02-02T08:46:38.371Z,102236.34
2023-02-02T08:49:04.845Z,102264.03
2023-02-02T08:51:31.285Z,102253.72
2023-02-02T08:53:57.848Z,102254.88
2023-02-02T08:56:24.540Z,102280.66
2023-02-02T08:58:53.660Z,102257.09
2023-02-02T09:01:25.897Z,102266.59
2023-02-02T09:03:56.888Z,102259.34
2023-02-02T09:06:28.590Z,102299.16
2023-02-02T09:08:55.052Z,102292.63
2023-02-02T09:11:21.465Z,102277.06
2023-02-02T09:13:49.502Z,102256.78
2023-02-02T09:16:18.306Z,102271.81
2023-02-02T09:18:45.487Z,102298.69
2023-02-02T09:21:14.623Z,102293.47
2023-02-02T09:23:42.880Z,102300.50
2023-02-02T09:26:10.692Z,102277.13
2023-02-02T09:28:39.372Z,102272.03
2023-02-02T09:31:06.581Z,102283.38
2023-02-02T09:33:33.277Z,102301.06
2023-02-02T09:36:08.119Z,102282.69
2023-02-02T09:38:34.902Z,102301.47
2023-02-02T09:41:03.171Z,102316.09
2023-02-02T09:44:11.495Z,102308.28
2023-02-02T09:46:56.641Z,102318.06
2023-02-02T09:49:53.539Z,102311.78
2023-02-02T09:52:29.994Z,102321.94
2023-02-02T09:55:03.275Z,102302.34
2023-02-02T09:57:37.835Z,102334.34
2023-02-02T10:00:06.344Z,102319.22
2023-02-02T10:02:45.800Z,102321.69
2023-02-02T10:05:18.341Z,102342.34
2023-02-02T10:07:48.770Z,102341.16
2023-02-02T10:10:21.020Z,102346.03
2023-02-02T10:13:05.945Z,102350.53
2023-02-02T10:15:54.639Z,102352.41
2023-02-02T10:18:34.750Z,102338.94
2023-02-02T10:21:04.741Z,102356.84
2023-02-02T10:23:37.351Z,102349.91
2023-02-02T10:26:26.316Z,102352.75
2023-02-02T10:29:28.067Z,102349.72
2023-02-02T10:32:23.557Z,102354.00
2023-02-02T10:35:12.680Z,102359.88
2023-02-02T10:38:12.495Z,102365.91
2023-02-02T10:40:58.193Z,102337.13
2023-02-02T10:43:45.912Z,102365.25
2023-02-02T10:46:22.362Z,102364.53
2023-02-02T10:48:50.079Z,102322.53
2023-02-02T10:51:29.713Z,102369.16
2023-02-02T10:54:00.123Z,102366.28
2023-02-02T10:56:43.013Z,102328.19
2023-02-02T10:59:21.945Z,102366.34
2023-02-02T11:01:48.717Z,102382.63
2023-02-02T11:04:33.919Z,102355.94
2023-02-02T11:07:01.620Z,102351.38
2023-02-02T11:09:32.455Z,102388.56
2023-02-02T11:12:13.689Z,102385.84
2023-02-02T11:14:46.257Z,102387.06
2023-02-02T11:17:20.889Z,102380.72
2023-02-02T11:19:49.759Z,102398.41
2023-02-02T11:22:30.672Z,102379.66
2023-02-02T11:25:00.254Z,102380.16
2023-02-02T11:27:33.258Z,102384.75
2023-02-02T11:30:10.098Z,102373.72
2023-02-02T11:32:37.807Z,102409.72
2023-02-02T11:35:04.196Z,102405.28
2023-02-02T11:37:31.907Z,102408.91
2023-02-02T11:40:29.265Z,102401.50
2023-02-02T11:42:58.369Z,102414.72
2023-02-02T11:45:37.189Z,102406.38
2023-02-02T11:48:22.189Z,102416.22
2023-02-02T11:50:51.886Z,102377.44
2023-02-02T11:53:33.822Z,102413.69
2023-02-02T11:56:05.721Z,102408.31
2023-02-02T11:58:52.956Z,102411.31
2023-02-02T12:01:27.442Z,102411.31
2023-02-02T12:03:57.049Z,102380.16
2023-02-02T12:06:24.991Z,102395.91
2023-02-02T12:08:56.016Z,102400.38
2023-02-02T13:27:02.924Z,102352.16
2023-02-02T13:29:48.221Z,102337.22
2023-02-02T13:32:27.139Z,102368.56
2023-02-02T13:35:16.063Z,102335.91
2023-02-02T13:37:42.396Z,102370.06
2023-02-02T13:40:24.591Z,102364.44
2023-02-02T13:43:18.400Z,102356.31
2023-02-02T13:46:06.817Z,102365.03
2023-02-02T13:48:50.584Z,102363.09
2023-02-02T13:51:19.973Z,102378.69
2023-02-02T13:54:08.304Z,102383.88
2023-02-02T13:56:45.933Z,102377.44
2023-02-02T13:59:54.081Z,102368.06
2023-02-02T14:02:29.534Z,102377.44
2023-02-02T14:04:59.624Z,102379.31
2023-02-02T14:07:47.177Z,102366.69
2023-02-02T14:10:28.836Z,102375.72
2023-02-02T14:12:56.269Z,102371.78
2023-02-02T14:15:44.356Z,102367.66
2023-02-02T14:18:10.832Z,102360.19
2023-02-02T14:20:43.805Z,102321.84
2023-02-02T14:23:52.386Z,102366.69
2023-02-02T14:26:40.826Z,102344.00
2023-02-02T14:29:29.280Z,102351.94
2023-02-02T14:32:19.300Z,102360.81
2023-02-02T14:34:45.742Z,102369.44
2023-02-02T14:37:21.274Z,102370.50
2023-02-02T14:40:06.193Z,102368.97
2023-02-02T14:43:22.087Z,102371.19
2023-02-02T14:46:10.785Z,102368.84
2023-02-02T14:48:41.115Z,102380.94
2023-02-02T14:51:18.082Z,102386.56
2023-02-02T14:53:56.226Z,102350.13
2023-02-02T14:56:38.972Z,102351.63
2023-02-02T14:59:07.584Z,102358.44
2023-02-02T15:01:37.332Z,102356.84
2023-02-02T15:04:22.238Z,102376.63
2023-02-02T15:06:51.083Z,102381.19
2023-02-02T15:09:20.656Z,102372.97
2023-02-02T15:12:01.049Z,102369.47
2023-02-02T15:14:45.464Z,102348.44
2023-02-02T15:17:33.884Z,102381.72
2023-02-02T15:20:13.375Z,102386.19
2023-02-02T15:23:00.929Z,102389.97
2023-02-02T15:25:51.658Z,102383.88
2023-02-02T15:28:21.466Z,102393.25
2023-02-02T15:30:56.562Z,102377.50
2023-02-02T15:33:37.280Z,102393.69
2023-02-02T15:36:25.671Z,102399.47
2023-02-02T15:39:02.882Z,102357.47
2023-02-02T15:41:41.643Z,102393.72
2023-02-02T15:44:28.078Z,102399.72
2023-02-02T15:46:57.698Z,102395.44
2023-02-02T15:49:34.891Z,102387.66
2023-02-02T15:52:12.835Z,102406.00
2023-02-02T15:54:49.701Z,102401.81
2023-02-02T15:57:44.781Z,102420.06
2023-02-02T16:00:31.062Z,102404.78
2023-02-02T16:03:11.350Z,102401.91
2023-02-02T16:05:37.656Z,102410.88
2023-02-02T16:08:15.359Z,102384.31
2023-02-02T16:10:41.930Z,102416.50
2023-02-02T16:13:22.401Z,102400.41
2023-02-02T16:15:59.037Z,102404.31
2023-02-02T16:18:25.576Z,102414.66
2023-02-02T16:20:54.125Z,102405.91
2023-02-02T16:23:28.759Z,102420.19
2023-02-02T16:25:59.782Z,102423.47
2023-02-02T16:28:26.856Z,102412.19
2023-02-02T16:30:53.736Z,102411.59
2023-02-02T16:33:36.067Z,102408.91
2023-02-02T16:36:25.391Z,102415.97
2023-02-02T16:38:54.150Z,102400.38
2023-02-02T16:41:36.981Z,102410.63
2023-02-02T16:44:40.830Z,102411.88
2023-02-02T16:47:28.066Z,102399.78
2023-02-02T16:50:09.897Z,102413.34
2023-02-02T16:52:57.139Z,102409.72
2023-02-02T16:55:24.182Z,102381.59
2023-02-02T16:57:51.849Z,102390.97
2023-02-02T17:00:28.632Z,102419.25
2023-02-02T17:03:04.454Z,102413.16
2023-02-02T17:05:47.767Z,102412.28
2023-02-02T17:08:14.255Z,102394.84
2023-02-02T17:10:43.651Z,102418.50
2023-02-02T17:13:36.597Z,102420.19
2023-02-02T17:16:03.898Z,102408.88
2023-02-02T17:18:30.415Z,102394.03
2023-02-02T17:21:03.630Z,102387.06
2023-02-02T17:23:32.108Z,102420.13
2023-02-02T17:25:59.063Z,102405.41
2023-02-02T17:28:27.093Z,102423.78
2023-02-02T17:31:00.214Z,102404.56
2023-02-02T17:33:27.527Z,102417.09
2023-02-02T17:35:56.231Z,102407.28
2023-02-02T17:38:25.076Z,102416.16
2023-02-02T17:40:52.739Z,102400.09
2023-02-02T17:43:19.179Z,102384.38
2023-02-02T17:45:45.628Z,102374.53
2023-02-02T17:48:13.380Z,102401.34
2023-02-02T17:50:41.461Z,102371.00
2023-02-02T17:53:16.241Z,102404.75
2023-02-02T17:55:44.005Z,102369.94
2023-02-02T19:03:52.153Z,102388.63
2023-02-02T19:06:38.195Z,102382.69
2023-02-02T19:09:05.790Z,102375.41
2023-02-02T19:11:35.443Z,102360.06
2023-02-02T19:14:01.820Z,102379.53
2023-02-02T19:16:32.925Z,102358.50
2023-02-02T19:19:11.413Z,102378.06
2023-02-02T19:21:37.881Z,102354.97
2023-02-02T19:24:10.903Z,102301.63
2023-02-02T19:26:41.085Z,102288.84
2023-02-02T19:29:20.027Z,102325.63
2023-02-02T19:31:52.184Z,102343.63
2023-02-02T19:34:21.494Z,102321.44
2023-02-02T19:36:50.119Z,102297.16
2023-02-02T19:39:30.752Z,102338.91
2023-02-02T19:42:00.340Z,102357.84
2023-02-02T19:44:32.215Z,102349.34
2023-02-02T19:46:59.908Z,102360.41
2023-02-02T19:49:30.433Z,102357.00
2023-02-02T19:51:58.361Z,102325.22
2023-02-02T19:54:34.881Z,102373.41
2023-02-02T19:57:13.449Z,102369.78
2023-02-02T19:59:41.999Z,102354.22
2023-02-02T20:02:27.001Z,102361.75
2023-02-02T20:05:05.947Z,102350.88
2023-02-02T20:07:32.467Z,102353.09
2023-02-02T20:10:13.876Z,102344.97
2023-02-02T20:12:40.303Z,102351.63
2023-02-02T20:15:31.263Z,102351.78
2023-02-02T20:17:59.878Z,102342.06
2023-02-02T20:20:29.642Z,102341.56
2023-02-02T20:22:57.214Z,102352.75
2023-02-02T20:25:23.764Z,102349.34
2023-02-02T20:27:50.558Z,102336.16
2023-02-02T20:30:23.647Z,102360.91
2023-02-02T20:32:56.520Z,102346.31
2023-02-02T20:35:38.507Z,102343.25
2023-02-02T20:38:27.755Z,102371.97
2023-02-02T20:40:55.373Z,102365.41
2023-02-02T20:43:21.856Z,102352.41
2023-02-02T20:45:48.810Z,102360.31
2023-02-02T20:48:15.353Z,102363.13
2023-02-02T20:50:42.445Z,102332.22
2023-02-02T20:53:09.035Z,102310.78
2023-02-02T20:55:36.794Z,102327.47
2023-02-02T20:58:04.381Z,102317.25
2023-02-02T21:00:30.846Z,102336.63
2023-02-02T21:02:57.643Z,102358.88
2023-02-02T21:05:24.725Z,102339.72
2023-02-02T21:07:54.888Z,102330.63
2023-02-02T21:10:25.220Z,102331.59
2023-02-02T21:12:52.144Z,102351.56
2023-02-02T21:15:19.083Z,102323.56
2023-02-02T21:17:45.528Z,102335.28
2023-02-02T21:20:13.296Z,102320.78
2023-02-02T21:22:39.849Z,102321.03
2023-02-02T21:25:06.643Z,102341.84
2023-02-02T21:27:33.022Z,102313.59
2023-02-02T21:29:59.448Z,102342.34
2023-02-02T21:32:25.835Z,102346.94
2023-02-02T21:34:52.215Z,102345.03
2023-02-02T21:37:18.619Z,102335.03
2023-02-02T21:39:49.505Z,102315.09
2023-02-02T21:42:19.233Z,102328.97
2023-02-02T21:44:56.247Z,102302.91
2023-02-02T21:47:34.670Z,102309.97
2023-02-02T21:50:13.836Z,102295.50
2023-02-02T21:52:40.280Z,102310.44
2023-02-02T21:55:18.853Z,102312.91
2023-02-02T21:57:45.341Z,102325.31
2023-02-02T22:00:30.840Z,102328.69
2023-02-02T22:02:58.948Z,102337.59
2023-02-02T22:05:36.761Z,102320.81
2023-02-02T22:08:23.713Z,102308.50
2023-02-02T22:10:50.112Z,102320.66
2023-02-02T22:13:19.090Z,102303.41
2023-02-02T22:15:51.058Z,102295.38
2023-02-02T22:18:20.643Z,102255.97
2023-02-02T22:20:50.361Z,102280.03
2023-02-02T22:23:19.480Z,102257.66
2023-02-02T22:25:48.084Z,102268.84
2023-02-02T22:28:26.045Z,102266.44
2023-02-02T22:30:54.015Z,102261.53
2023-02-02T22:33:21.915Z,102260.09
2023-02-02T22:35:48.378Z,102244.75
2023-02-02T22:38:20.150Z,102236.25
2023-02-02T22:40:48.038Z,102228.22
2023-02-02T22:43:16.535Z,102239.03
2023-02-02T22:45:44.092Z,102239.91
2023-02-02T22:48:12.038Z,102227.94
2023-02-02T22:50:38.914Z,102233.81
2023-02-02T22:53:05.622Z,102227.34
2023-02-02T22:55:32.904Z,102197.28
2023-02-02T22:57:59.459Z,102225.88
2023-02-02T23:00:28.744Z,102224.69
2023-02-02T23:02:55.937Z,102219.44
2023-02-02T23:05:23.703Z,102206.06
2023-02-02T23:07:50.500Z,102214.72
2023-02-02T23:10:19.257Z,102232.09
2023-02-02T23:12:46.656Z,102219.94
2023-02-02T23:15:14.477Z,102226.25
2023-02-02T23:17:40.977Z,102210.69
2023-02-02T23:20:10.381Z,102215.88
2023-02-02T23:22:36.782Z,102218.22
2023-02-02T23:25:03.417Z,102220.16
2023-02-02T23:27:29.851Z,102219.78
2023-02-02T23:29:56.229Z,102230.97
2023-02-02T23:32:22.671Z,102233.19
2023-02-02T23:34:49.064Z,102241.56
2023-02-02T23:37:15.439Z,102244.25
2023-02-02T23:39:41.831Z,102243.28
2023-02-02T23:42:08.206Z,102247.44
2023-02-02T23:44:34.639Z,102238.06
2023-02-02T23:47:02.153Z,102207.16
2023-02-02T23:49:30.367Z,102216.78
2023-02-02T23:51:57.016Z,102215.28
2023-02-02T23:54:23.562Z,102245.25
2023-02-02T23:56:50.331Z,102239.25
2023-02-02T23:59:16.739Z,102247.44
